createdAt,value
2017-05-03T00:02:01.230Z,10.80
2017-05-03T00:04:28.597Z,10.80
2017-05-03T00:06:55.878Z,10.90
2017-05-03T00:09:23.198Z,10.90
2017-05-03T00:11:50.553Z,10.90
2017-05-03T00:14:17.905Z,10.80
2017-05-03T00:16:45.199Z,10.80
2017-05-03T00:19:12.582Z,10.80
2017-05-03T00:21:39.478Z,10.80
2017-05-03T00:24:06.835Z,10.90
2017-05-03T00:26:34.248Z,10.90
2017-05-03T00:29:01.634Z,10.90
2017-05-03T00:31:28.990Z,10.90
2017-05-03T00:33:56.348Z,10.90
2017-05-03T00:36:23.697Z,10.90
2017-05-03T00:38:50.987Z,10.90
2017-05-03T00:41:18.419Z,10.90
2017-05-03T00:43:45.766Z,10.90
2017-05-03T00:46:13.075Z,10.80
2017-05-03T00:48:40.785Z,10.80
2017-05-03T00:51:08.071Z,10.90
2017-05-03T00:53:35.395Z,10.90
2017-05-03T00:56:02.728Z,10.80
2017-05-03T00:58:30.010Z,10.80
2017-05-03T01:00:57.362Z,10.80
2017-05-03T01:03:24.686Z,10.60
2017-05-03T01:05:51.974Z,10.60
2017-05-03T01:08:19.327Z,10.60
2017-05-03T01:10:46.689Z,10.60
2017-05-03T01:13:13.980Z,10.60
2017-05-03T01:15:41.705Z,10.60
2017-05-03T01:18:09.058Z,10.50
2017-05-03T01:20:35.955Z,10.50
2017-05-03T01:23:03.250Z,10.60
2017-05-03T01:25:30.614Z,10.60
2017-05-03T01:27:57.502Z,10.60
2017-05-03T01:30:25.159Z,10.60
2017-05-03T01:32:52.484Z,10.50
2017-05-03T01:35:19.852Z,10.40
2017-05-03T01:37:47.135Z,10.60
2017-05-03T01:40:14.842Z,10.60
2017-05-03T01:42:42.214Z,10.50
2017-05-03T01:45:09.505Z,10.50
2017-05-03T01:47:37.210Z,10.50
2017-05-03T01:50:04.507Z,10.40
2017-05-03T01:52:31.426Z,10.40
2017-05-03T01:54:58.761Z,10.40
2017-05-03T01:57:26.154Z,10.40
2017-05-03T01:59:53.448Z,10.50
2017-05-03T02:02:20.787Z,10.60
2017-05-03T02:04:47.681Z,10.60
2017-05-03T02:07:14.998Z,10.70
2017-05-03T02:09:42.690Z,10.60
2017-05-03T02:12:10.004Z,10.60
2017-05-03T02:14:37.292Z,10.60
2017-05-03T02:17:04.678Z,10.50
2017-05-03T02:19:32.041Z,10.50
2017-05-03T02:21:59.394Z,10.40
2017-05-03T02:24:26.446Z,10.40
2017-05-03T02:26:53.746Z,10.30
2017-05-03T02:29:21.405Z,10.30
2017-05-03T02:31:49.139Z,10.40
2017-05-03T02:34:16.473Z,10.40
2017-05-03T02:36:43.362Z,10.40
2017-05-03T02:39:10.782Z,10.40
2017-05-03T02:41:38.138Z,10.50
2017-05-03T02:44:05.490Z,10.60
2017-05-03T02:46:32.853Z,10.60
2017-05-03T02:49:00.150Z,10.60
2017-05-03T02:51:27.802Z,10.70
2017-05-03T02:53:55.135Z,10.70
2017-05-03T02:56:22.421Z,10.70
2017-05-03T02:58:49.306Z,10.70
2017-05-03T03:01:16.634Z,10.80
2017-05-03T03:03:44.286Z,10.80
2017-05-03T03:06:11.186Z,10.80
2017-05-03T03:08:38.538Z,10.80
2017-05-03T03:11:05.817Z,10.80
2017-05-03T03:13:32.809Z,10.80
2017-05-03T03:16:00.138Z,11.00
2017-05-03T03:18:27.423Z,11.00
2017-05-03T03:20:54.706Z,10.90
2017-05-03T03:23:22.045Z,10.90
2017-05-03T03:25:49.349Z,10.90
2017-05-03T03:28:16.332Z,10.90
2017-05-03T03:30:43.679Z,10.90
2017-05-03T03:33:11.042Z,10.80
2017-05-03T03:35:37.934Z,10.80
2017-05-03T03:38:05.637Z,10.80
2017-05-03T03:40:32.923Z,10.80
2017-05-03T03:43:00.211Z,10.90
2017-05-03T03:45:27.906Z,10.90
2017-05-03T03:47:55.279Z,10.90
2017-05-03T03:50:22.981Z,10.90
2017-05-03T03:52:50.678Z,10.90
2017-05-03T03:55:18.061Z,10.80
2017-05-03T03:57:45.346Z,10.80
2017-05-03T04:00:12.686Z,10.80
2017-05-03T04:02:39.986Z,10.80
2017-05-03T04:05:07.381Z,10.80
2017-05-03T04:07:34.695Z,10.90
2017-05-03T04:10:02.409Z,10.90
2017-05-03T04:12:29.450Z,10.90
2017-05-03T04:14:56.811Z,10.90
2017-05-03T04:17:24.109Z,10.90
2017-05-03T04:19:51.830Z,11.00
2017-05-03T04:22:19.122Z,10.90
2017-05-03T04:24:46.845Z,10.90
2017-05-03T04:27:14.617Z,10.90
2017-05-03T04:29:41.915Z,10.90
2017-05-03T04:32:09.629Z,10.90
2017-05-03T04:34:36.963Z,10.90
2017-05-03T04:37:03.849Z,10.90
2017-05-03T04:39:31.138Z,11.10
2017-05-03T04:41:58.071Z,11.10
2017-05-03T04:44:25.798Z,11.10
2017-05-03T04:46:53.095Z,11.10
2017-05-03T04:49:20.803Z,11.10
2017-05-03T04:51:47.694Z,11.10
2017-05-03T04:54:14.982Z,11.20
2017-05-03T04:56:42.338Z,11.30
2017-05-03T04:59:09.621Z,11.40
2017-05-03T05:01:36.905Z,11.30
2017-05-03T05:04:04.233Z,11.20
2017-05-03T05:06:31.590Z,11.20
2017-05-03T05:08:58.873Z,11.20
2017-05-03T05:11:26.302Z,11.10
2017-05-03T05:13:53.594Z,10.90
2017-05-03T05:16:21.259Z,11.00
2017-05-03T05:18:48.986Z,11.10
2017-05-03T05:21:16.276Z,11.10
2017-05-03T05:23:43.166Z,11.10
2017-05-03T05:26:10.522Z,11.30
2017-05-03T05:28:37.891Z,11.30
2017-05-03T05:31:05.178Z,11.40
2017-05-03T05:33:32.506Z,11.40
2017-05-03T05:35:59.415Z,11.40
2017-05-03T05:38:26.698Z,11.30
2017-05-03T05:40:54.037Z,11.40
2017-05-03T05:43:21.380Z,11.40
2017-05-03T05:45:48.739Z,11.50
2017-05-03T05:48:16.077Z,11.70
2017-05-03T05:50:43.362Z,11.80
2017-05-03T05:53:11.518Z,11.80
2017-05-03T05:55:38.846Z,11.90
2017-05-03T05:58:06.225Z,11.90
2017-05-03T06:00:33.586Z,12.00
2017-05-03T06:03:00.941Z,12.00
2017-05-03T06:05:28.301Z,12.00
2017-05-03T06:07:55.658Z,12.00
2017-05-03T06:10:23.011Z,11.90
2017-05-03T06:12:50.295Z,11.80
2017-05-03T06:15:17.585Z,11.70
2017-05-03T06:17:44.975Z,11.60
2017-05-03T06:20:12.254Z,11.60
2017-05-03T06:22:39.590Z,11.60
2017-05-03T06:25:06.946Z,11.60
2017-05-03T06:27:34.297Z,11.50
2017-05-03T06:30:01.581Z,11.50
2017-05-03T06:32:28.599Z,11.50
2017-05-03T06:34:55.962Z,11.60
2017-05-03T06:37:23.251Z,11.70
2017-05-03T06:39:50.270Z,11.70
2017-05-03T06:42:17.559Z,12.00
2017-05-03T06:44:44.870Z,12.10
2017-05-03T06:47:12.201Z,12.30
2017-05-03T06:49:39.550Z,12.50
2017-05-03T06:52:06.838Z,12.60
2017-05-03T06:54:34.185Z,12.70
2017-05-03T06:57:01.546Z,12.80
2017-05-03T06:59:28.898Z,12.90
2017-05-03T07:01:56.232Z,13.10
2017-05-03T07:04:23.615Z,13.20
2017-05-03T07:06:50.962Z,13.30
2017-05-03T07:09:18.294Z,13.30
2017-05-03T07:11:45.678Z,13.50
2017-05-03T07:14:13.073Z,13.70
2017-05-03T07:16:40.804Z,13.80
2017-05-03T07:19:08.094Z,13.90
2017-05-03T07:21:36.086Z,13.80
2017-05-03T07:24:03.282Z,13.80
2017-05-03T07:26:30.581Z,13.50
2017-05-03T07:28:58.294Z,13.40
2017-05-03T07:31:25.665Z,13.30
2017-05-03T07:33:53.011Z,13.20
2017-05-03T07:36:20.303Z,13.20
2017-05-03T07:38:48.039Z,13.20
2017-05-03T07:41:15.381Z,13.30
2017-05-03T07:43:42.666Z,13.40
2017-05-03T07:46:10.194Z,13.40
2017-05-03T07:48:37.526Z,13.40
2017-05-03T07:51:04.905Z,13.30
2017-05-03T07:53:32.212Z,13.30
2017-05-03T07:55:59.917Z,13.40
2017-05-03T07:58:27.202Z,13.50
2017-05-03T08:00:54.537Z,13.80
2017-05-03T08:03:21.865Z,14.00
2017-05-03T08:05:49.249Z,14.30
2017-05-03T08:08:16.530Z,14.50
2017-05-03T08:10:43.958Z,14.70
2017-05-03T08:13:10.905Z,14.70
2017-05-03T08:15:37.794Z,14.80
2017-05-03T08:18:05.118Z,14.80
2017-05-03T08:20:32.404Z,14.90
2017-05-03T08:23:00.165Z,14.90
2017-05-03T08:25:27.861Z,14.80
2017-05-03T08:27:55.247Z,14.90
2017-05-03T08:30:22.540Z,14.90
2017-05-03T08:32:50.263Z,15.00
2017-05-03T08:35:17.210Z,15.00
2017-05-03T08:37:45.015Z,15.20
2017-05-03T08:40:12.433Z,15.20
2017-05-03T08:42:39.713Z,15.00
2017-05-03T08:45:07.004Z,14.90
2017-05-03T08:47:34.335Z,14.90
2017-05-03T08:50:01.618Z,14.90
2017-05-03T08:52:28.518Z,14.90
2017-05-03T08:54:55.847Z,15.00
2017-05-03T08:57:23.194Z,15.10
2017-05-03T08:59:51.283Z,15.20
2017-05-03T09:02:18.635Z,15.30
2017-05-03T09:04:46.002Z,15.40
2017-05-03T09:07:13.354Z,15.50
2017-05-03T09:09:40.693Z,15.60
2017-05-03T09:12:07.970Z,15.70
2017-05-03T09:14:35.253Z,15.80
2017-05-03T09:17:02.183Z,15.80
2017-05-03T09:19:29.514Z,16.10
2017-05-03T09:21:56.796Z,16.10
2017-05-03T09:24:23.755Z,16.10
2017-05-03T09:26:51.038Z,16.30
2017-05-03T09:29:18.392Z,16.30
2017-05-03T09:31:45.290Z,16.30
2017-05-03T09:34:12.766Z,15.90
2017-05-03T09:36:39.706Z,16.00
2017-05-03T09:39:06.987Z,16.10
2017-05-03T09:41:34.265Z,16.30
2017-05-03T09:44:02.024Z,16.50
2017-05-03T09:46:29.394Z,16.50
2017-05-03T09:48:56.344Z,16.50
2017-05-03T09:51:23.685Z,16.60
2017-05-03T09:53:51.055Z,16.40
2017-05-03T09:56:18.345Z,16.50
2017-05-03T09:58:45.666Z,16.70
2017-05-03T10:01:12.948Z,16.90
2017-05-03T10:03:40.230Z,17.00
2017-05-03T10:06:07.154Z,17.00
2017-05-03T10:08:34.483Z,17.30
2017-05-03T10:11:01.827Z,17.50
2017-05-03T10:13:29.165Z,17.70
2017-05-03T10:15:56.457Z,17.80
2017-05-03T10:18:23.833Z,18.00
2017-05-03T10:20:50.761Z,17.90
2017-05-03T10:23:18.097Z,17.80
2017-05-03T10:25:45.369Z,17.70
2017-05-03T10:28:12.806Z,17.70
2017-05-03T10:30:40.165Z,17.80
2017-05-03T10:33:07.441Z,17.90
2017-05-03T10:35:34.778Z,18.00
2017-05-03T10:38:02.063Z,18.10
2017-05-03T10:40:29.350Z,18.10
2017-05-03T10:42:56.345Z,18.10
2017-05-03T10:45:23.625Z,18.30
2017-05-03T10:47:50.551Z,18.30
2017-05-03T10:50:17.833Z,18.10
2017-05-03T10:52:44.756Z,18.10
2017-05-03T10:55:12.086Z,17.60
2017-05-03T10:57:39.369Z,17.60
2017-05-03T11:00:06.705Z,17.70
2017-05-03T11:02:34.088Z,17.70
2017-05-03T11:05:01.367Z,17.60
2017-05-03T11:07:28.350Z,17.60
2017-05-03T11:09:55.665Z,17.20
2017-05-03T11:12:23.318Z,17.10
2017-05-03T11:14:51.021Z,17.00
2017-05-03T11:17:18.390Z,16.90
2017-05-03T11:19:45.747Z,16.80
2017-05-03T11:22:13.140Z,16.60
2017-05-03T11:24:40.422Z,16.40
2017-05-03T11:27:07.812Z,16.30
2017-05-03T11:29:35.162Z,16.10
2017-05-03T11:32:02.525Z,16.00
2017-05-03T11:34:29.814Z,15.90
2017-05-03T11:36:57.153Z,15.80
2017-05-03T11:39:24.441Z,15.80
2017-05-03T11:41:51.327Z,15.80
2017-05-03T11:44:18.284Z,15.70
2017-05-03T11:46:45.169Z,15.70
2017-05-03T11:49:12.082Z,15.60
2017-05-03T11:51:39.777Z,15.30
2017-05-03T11:54:07.141Z,15.20
2017-05-03T11:56:34.423Z,15.10
2017-05-03T11:59:01.955Z,15.00
2017-05-03T12:01:29.247Z,14.90
2017-05-03T12:03:56.528Z,14.90
2017-05-03T12:06:23.881Z,14.80
2017-05-03T12:08:51.167Z,14.70
2017-05-03T12:11:18.169Z,14.70
2017-05-03T12:13:45.533Z,14.80
2017-05-03T12:16:12.472Z,14.80
2017-05-03T12:18:39.749Z,14.60
2017-05-03T12:21:06.765Z,14.60
2017-05-03T12:23:34.046Z,14.80
2017-05-03T12:26:01.330Z,14.70
2017-05-03T12:28:29.023Z,14.70
2017-05-03T12:30:56.305Z,14.70
2017-05-03T12:33:23.593Z,14.90
2017-05-03T12:35:50.529Z,14.90
2017-05-03T12:38:17.815Z,15.10
2017-05-03T12:40:45.201Z,15.00
2017-05-03T12:43:12.563Z,15.00
2017-05-03T12:45:39.914Z,15.00
2017-05-03T12:48:07.202Z,15.10
2017-05-03T12:50:34.624Z,15.30
2017-05-03T12:53:01.909Z,15.40
2017-05-03T12:55:29.188Z,15.50
2017-05-03T12:57:56.898Z,15.40
2017-05-03T13:00:24.258Z,15.50
2017-05-03T13:02:51.540Z,15.50
2017-05-03T13:05:18.857Z,15.50
2017-05-03T13:07:46.219Z,15.60
2017-05-03T13:10:13.581Z,15.70
2017-05-03T13:12:40.943Z,15.60
2017-05-03T13:15:07.822Z,15.70
2017-05-03T13:17:35.113Z,15.80
2017-05-03T13:20:02.437Z,15.70
2017-05-03T13:22:30.125Z,15.80
2017-05-03T13:24:57.417Z,15.90
2017-05-03T13:27:24.754Z,16.00
2017-05-03T13:29:52.037Z,16.10
2017-05-03T13:32:19.322Z,16.10
2017-05-03T13:34:47.033Z,16.20
2017-05-03T13:37:14.398Z,16.30
2017-05-03T13:39:41.673Z,16.30
2017-05-03T13:42:09.004Z,16.20
2017-05-03T13:44:35.897Z,16.20
2017-05-03T13:47:03.618Z,16.20
2017-05-03T13:49:30.969Z,16.30
2017-05-03T13:51:58.259Z,16.40
2017-05-03T13:54:25.563Z,16.50
2017-05-03T13:56:52.906Z,16.60
2017-05-03T13:59:20.191Z,16.40
2017-05-03T14:01:47.474Z,16.40
2017-05-03T14:04:14.924Z,16.50
2017-05-03T14:06:42.299Z,16.40
2017-05-03T14:09:09.964Z,16.30
2017-05-03T14:11:37.340Z,16.00
2017-05-03T14:14:04.220Z,16.00
2017-05-03T14:16:31.502Z,15.60
2017-05-03T14:18:58.843Z,15.50
2017-05-03T14:21:26.187Z,15.50
2017-05-03T14:23:53.480Z,15.50
2017-05-03T14:26:20.810Z,15.50
2017-05-03T14:28:48.170Z,15.40
2017-05-03T14:31:15.452Z,15.10
2017-05-03T14:33:43.146Z,15.10
2017-05-03T14:36:10.546Z,15.10
2017-05-03T14:38:37.830Z,15.10
2017-05-03T14:41:05.518Z,15.20
2017-05-03T14:43:32.940Z,15.30
2017-05-03T14:46:00.261Z,15.20
2017-05-03T14:48:27.579Z,15.20
2017-05-03T14:50:57.153Z,15.30
2017-05-03T14:53:24.585Z,15.40
2017-05-03T14:55:51.929Z,15.50
2017-05-03T14:58:19.216Z,15.40
2017-05-03T15:00:46.127Z,15.40
2017-05-03T15:03:13.485Z,15.40
2017-05-03T15:05:40.763Z,15.50
2017-05-03T15:08:08.041Z,15.20
2017-05-03T15:10:35.041Z,15.20
2017-05-03T15:13:02.440Z,15.20
2017-05-03T15:15:29.321Z,15.10
2017-05-03T15:17:56.703Z,15.00
2017-05-03T15:20:23.982Z,14.90
2017-05-03T15:22:50.883Z,14.90
2017-05-03T15:25:18.523Z,14.90
2017-05-03T15:27:45.921Z,14.80
2017-05-03T15:30:13.198Z,14.80
2017-05-03T15:32:40.610Z,14.90
2017-05-03T15:35:07.888Z,15.00
2017-05-03T15:37:35.162Z,15.10
2017-05-03T15:40:02.578Z,15.10
2017-05-03T15:42:29.933Z,15.20
2017-05-03T15:44:57.289Z,15.30
2017-05-03T15:47:24.682Z,15.40
2017-05-03T15:49:51.962Z,15.40
2017-05-03T15:52:19.616Z,15.40
2017-05-03T15:54:47.313Z,15.40
2017-05-03T15:57:14.693Z,15.50
2017-05-03T15:59:41.970Z,15.40
2017-05-03T16:02:09.287Z,15.40
2017-05-03T16:04:36.568Z,15.40
2017-05-03T16:07:03.903Z,15.50
2017-05-03T16:09:31.262Z,15.40
2017-05-03T16:11:58.537Z,15.20
2017-05-03T16:14:25.871Z,15.10
2017-05-03T16:16:53.242Z,15.10
2017-05-03T16:19:20.581Z,15.10
2017-05-03T16:21:47.853Z,15.10
2017-05-03T16:24:15.179Z,14.90
2017-05-03T16:26:42.062Z,14.90
2017-05-03T16:29:09.430Z,14.60
2017-05-03T16:31:36.769Z,14.50
2017-05-03T16:34:04.143Z,14.50
2017-05-03T16:36:31.422Z,14.40
2017-05-03T16:38:58.766Z,14.30
2017-05-03T16:41:25.654Z,14.30
2017-05-03T16:43:53.052Z,14.30
2017-05-03T16:46:20.469Z,14.00
2017-05-03T16:48:47.354Z,14.00
2017-05-03T16:51:14.637Z,14.10
2017-05-03T16:53:41.561Z,14.10
2017-05-03T16:56:09.226Z,14.20
2017-05-03T16:58:36.983Z,14.30
2017-05-03T17:01:04.420Z,14.40
2017-05-03T17:03:31.758Z,14.40
2017-05-03T17:05:59.053Z,14.40
2017-05-03T17:08:26.475Z,14.20
2017-05-03T17:10:53.762Z,14.30
2017-05-03T17:13:21.045Z,14.40
2017-05-03T17:15:48.366Z,14.50
2017-05-03T17:18:15.250Z,14.50
2017-05-03T17:20:42.526Z,14.40
2017-05-03T17:23:09.956Z,14.50
2017-05-03T17:25:37.250Z,14.70
2017-05-03T17:28:04.565Z,14.70
2017-05-03T17:30:31.493Z,14.70
2017-05-03T17:32:58.968Z,14.60
2017-05-03T17:35:26.325Z,14.60
2017-05-03T17:37:53.723Z,14.60
2017-05-03T17:40:20.996Z,14.50
2017-05-03T17:42:48.659Z,14.50
2017-05-03T17:45:15.590Z,14.50
2017-05-03T17:47:43.249Z,14.60
2017-05-03T17:50:10.525Z,14.60
2017-05-03T17:52:37.849Z,14.60
2017-05-03T17:55:05.130Z,14.60
2017-05-03T17:57:32.819Z,14.50
2017-05-03T17:59:59.747Z,14.50
2017-05-03T18:02:27.042Z,14.40
2017-05-03T18:04:54.396Z,14.40
2017-05-03T18:07:21.826Z,14.40
2017-05-03T18:09:49.154Z,14.40
2017-05-03T18:12:16.822Z,14.30
2017-05-03T18:14:43.750Z,14.30
2017-05-03T18:17:11.067Z,14.30
2017-05-03T18:19:38.023Z,14.30
2017-05-03T18:22:05.346Z,14.30
2017-05-03T18:24:32.728Z,14.20
2017-05-03T18:27:00.082Z,14.20
2017-05-03T18:29:27.015Z,14.20
2017-05-03T18:31:54.290Z,14.40
2017-05-03T18:34:21.617Z,14.30
2017-05-03T18:36:48.976Z,14.30
2017-05-03T18:39:16.322Z,14.40
2017-05-03T18:41:43.660Z,14.40
2017-05-03T18:44:11.045Z,14.40
2017-05-03T18:46:38.326Z,14.20
2017-05-03T18:49:05.661Z,13.80
2017-05-03T18:51:32.944Z,13.50
2017-05-03T18:54:00.257Z,13.30
2017-05-03T18:56:27.588Z,13.20
2017-05-03T18:58:54.867Z,13.20
2017-05-03T19:01:21.753Z,13.20
2017-05-03T19:03:49.201Z,13.20
2017-05-03T19:06:16.534Z,13.20
2017-05-03T19:08:43.459Z,13.20
2017-05-03T19:11:10.869Z,13.10
2017-05-03T19:13:38.601Z,12.90
2017-05-03T19:16:05.883Z,13.00
2017-05-03T19:18:33.302Z,13.00
2017-05-03T19:21:00.595Z,12.90
2017-05-03T19:23:27.917Z,13.10
2017-05-03T19:25:55.293Z,13.10
2017-05-03T19:28:22.574Z,13.20
2017-05-03T19:30:50.223Z,13.20
2017-05-03T19:33:17.650Z,13.30
2017-05-03T19:35:44.930Z,13.30
2017-05-03T19:38:12.257Z,13.30
2017-05-03T19:40:39.214Z,13.40
2017-05-03T19:43:06.563Z,13.40
2017-05-03T19:45:33.851Z,13.40
2017-05-03T19:48:01.189Z,13.40
2017-05-03T19:50:28.465Z,13.40
2017-05-03T19:52:56.140Z,13.50
2017-05-03T19:55:23.961Z,13.50
2017-05-03T19:57:51.235Z,13.60
2017-05-03T20:00:18.518Z,13.60
2017-05-03T20:02:46.210Z,13.60
2017-05-03T20:05:13.492Z,13.50
2017-05-03T20:07:40.778Z,13.60
2017-05-03T20:10:08.522Z,13.50
2017-05-03T20:12:35.409Z,13.50
2017-05-03T20:15:02.700Z,13.50
2017-05-03T20:17:29.650Z,13.50
2017-05-03T20:19:57.003Z,13.50
2017-05-03T20:22:24.294Z,13.60
2017-05-03T20:24:51.667Z,13.50
2017-05-03T20:27:18.961Z,13.50
2017-05-03T20:29:46.296Z,13.60
2017-05-03T20:32:13.627Z,13.70
2017-05-03T20:34:40.910Z,13.70
2017-05-03T20:37:08.190Z,13.70
2017-05-03T20:39:35.518Z,13.60
2017-05-03T20:42:02.801Z,13.60
2017-05-03T20:44:30.073Z,13.70
2017-05-03T20:46:57.393Z,13.70
2017-05-03T20:49:24.759Z,13.70
2017-05-03T20:51:52.110Z,13.60
2017-05-03T20:54:19.655Z,13.70
2017-05-03T20:56:47.375Z,13.80
2017-05-03T20:59:14.714Z,13.70
2017-05-03T21:01:42.065Z,13.70
2017-05-03T21:04:09.345Z,13.70
2017-05-03T21:06:36.765Z,13.70
2017-05-03T21:09:04.129Z,13.70
2017-05-03T21:11:31.482Z,13.80
2017-05-03T21:13:58.827Z,13.80
2017-05-03T21:16:26.566Z,13.80
2017-05-03T21:18:53.849Z,13.80
2017-05-03T21:21:21.561Z,13.70
2017-05-03T21:23:48.914Z,13.60
2017-05-03T21:26:16.273Z,13.60
2017-05-03T21:28:43.569Z,13.60
2017-05-03T21:31:10.497Z,13.60
2017-05-03T21:33:37.778Z,13.40
2017-05-03T21:36:05.050Z,13.20
2017-05-03T21:38:32.071Z,13.20
2017-05-03T21:40:59.122Z,13.00
2017-05-03T21:43:26.415Z,13.20
2017-05-03T21:45:53.829Z,13.20
2017-05-03T21:48:21.102Z,13.30
2017-05-03T21:50:48.381Z,13.30
2017-05-03T21:53:15.766Z,13.30
2017-05-03T21:55:43.143Z,13.40
2017-05-03T21:58:10.501Z,13.50
2017-05-03T22:00:37.984Z,13.50
2017-05-03T22:03:04.893Z,13.50
2017-05-03T22:05:32.170Z,13.50
2017-05-03T22:07:59.489Z,13.50
2017-05-03T22:10:26.369Z,13.50
2017-05-03T22:12:53.645Z,13.60
2017-05-03T22:15:21.341Z,13.60
2017-05-03T22:17:48.227Z,13.60
2017-05-03T22:20:15.561Z,13.50
2017-05-03T22:22:43.022Z,13.50
2017-05-03T22:25:10.304Z,13.60
2017-05-03T22:27:37.643Z,13.50
2017-05-03T22:30:04.969Z,13.40
2017-05-03T22:32:32.251Z,13.40
2017-05-03T22:34:59.605Z,13.50
2017-05-03T22:37:26.972Z,13.40
2017-05-03T22:39:54.421Z,13.50
2017-05-03T22:42:21.709Z,13.50
2017-05-03T22:44:49.141Z,13.50
2017-05-03T22:47:16.515Z,13.40
2017-05-03T22:49:43.806Z,13.30
2017-05-03T22:52:11.611Z,13.40
2017-05-03T22:54:38.965Z,13.40
2017-05-03T22:57:06.323Z,13.30
2017-05-03T22:59:33.990Z,13.20
2017-05-03T23:02:01.351Z,13.30
2017-05-03T23:04:28.638Z,13.20
2017-05-03T23:06:55.962Z,13.30
2017-05-03T23:09:23.311Z,13.40
2017-05-03T23:11:50.675Z,13.30
2017-05-03T23:14:18.126Z,13.30
2017-05-03T23:16:45.482Z,13.30
2017-05-03T23:19:12.814Z,13.40
2017-05-03T23:21:39.698Z,13.40
2017-05-03T23:24:07.045Z,13.40
2017-05-03T23:26:34.366Z,13.40
2017-05-03T23:29:01.333Z,13.40
2017-05-03T23:31:28.613Z,13.50
2017-05-03T23:33:55.950Z,13.40
2017-05-03T23:36:23.321Z,13.50
2017-05-03T23:38:50.614Z,13.40
2017-05-03T23:41:18.301Z,13.50
2017-05-03T23:43:45.596Z,13.40
2017-05-03T23:46:12.873Z,13.40
2017-05-03T23:48:40.595Z,13.30
2017-05-03T23:51:08.196Z,13.40
2017-05-03T23:53:35.513Z,13.30
2017-05-03T23:56:02.557Z,13.40
2017-05-03T23:58:29.865Z,13.30
